Point Lay Lrrs Airport
PPIZ : now visible

Airfield :











YOU CAN JOIN US ON...

 
LOGIN :

Register | Disclaimer

   EN    FR    IT 

 









Legend :    VFR   Marginal VFR   IFR   Intensive IFR   Very Intensive IFR
Visi :
Ceiling :
>= 8 km
>= 3000ft
5 to 8 km
1000 to 3000 ft
1500m to 5 km
500 to 1000 ft
800 to 1500m
200 to 500 ft
< 800m
< 200 ft
Symbols :   Thunderstorms  Fog  Heavy snow  Heavy precipitations  Wind > 20 kt






- Airport Elevation : 22 ft
- IATA code : PIZ


PPIZ - Point Lay Lrrs

CURRENT METAR :
  • 010656Z AUTO 19033G43KT 3SM -RA BR BKN010 OVC018 09/08 A2941 RMK AO2 PK WND 18044/0639 RAB11 SLP962 T00940083 PNO $

EXPIRED METARs :
  • 010640Z AUTO 18036G44KT 1 3/4SM -RA BR BKN017 OVC024 11/08 A2940 RMK AO2 PK WND 18044/0639 VIS 1 1/4V5 RAB11 PNO $
  • 010624Z AUTO 17032G37KT 10SM BKN024 BKN032 OVC046 12/08 A2940 RMK AO2 PK WND 16037/0624 RAB11E24 PNO $
  • 010540Z AUTO 17025G34KT 10SM SCT028 BKN039 OVC050 12/08 A2941 RMK AO2 PK WND 17034/0537 RAE0457 PNO $
  • 010528Z AUTO 17027G32KT 10SM BKN028 BKN047 BKN080 12/08 A2940 RMK AO2 PK WND 17032/0527 RAE0457 PNO $
  • 010456Z AUTO 18019KT 10SM -RA FEW015 BKN034 OVC046 12/09 A2940 RMK AO2 PK WND 17034/0403 WSHFT 0349 RAE17B40 SLP959 T01170089 PNO $
  • 010409Z AUTO 17022G34KT 5SM -RA BKN039 OVC048 13/09 A2938 RMK AO2 PK WND 17034/0403 WSHFT 0349 PNO $

TAF N/A
PAZA FIR / North America



MET'MAP, your aeronautical weather chart ! - Copyright ORBIFLY December 2007 - Disclaimer

ORBIFLY MET'MAP TEAM :

Programming & Development : Alexandra Zaïnal
Concept & original design : Baudouin d'Aumeries
Assistance for programming : Marc-Olivier Méhu
Technical & hardware support : Manuel Goepfert

Contact : metmap@orbifly.com




SOURCES & CREDITS :

   NOAA       Earth
Advisory